sensor_id;sensor_type;location;lat;lon;timestamp;temperature;humidity
17565;DHT22;62994;52.126;5.596;2024-02-26T00:00:40;6.70;99.90
17565;DHT22;62994;52.126;5.596;2024-02-26T00:03:07;6.70;99.90
17565;DHT22;62994;52.126;5.596;2024-02-26T00:05:35;6.70;99.90
17565;DHT22;62994;52.126;5.596;2024-02-26T00:08:04;6.70;99.90
17565;DHT22;62994;52.126;5.596;2024-02-26T00:10:31;6.70;99.90
17565;DHT22;62994;52.126;5.596;2024-02-26T00:12:58;6.70;99.90
17565;DHT22;62994;52.126;5.596;2024-02-26T00:15:25;6.60;99.90
17565;DHT22;62994;52.126;5.596;2024-02-26T00:17:54;6.60;99.90
17565;DHT22;62994;52.126;5.596;2024-02-26T00:20:21;6.60;99.90
17565;DHT22;62994;52.126;5.596;2024-02-26T00:22:48;6.60;99.90
17565;DHT22;62994;52.126;5.596;2024-02-26T00:25:15;6.60;99.90
17565;DHT22;62994;52.126;5.596;2024-02-26T00:27:42;6.60;99.90
17565;DHT22;62994;52.126;5.596;2024-02-26T00:30:10;6.60;99.90
17565;DHT22;62994;52.126;5.596;2024-02-26T00:32:37;6.60;99.90
17565;DHT22;62994;52.126;5.596;2024-02-26T00:35:06;6.60;99.90
17565;DHT22;62994;52.126;5.596;2024-02-26T00:37:35;6.60;99.90
17565;DHT22;62994;52.126;5.596;2024-02-26T00:40:02;6.60;99.90
17565;DHT22;62994;52.126;5.596;2024-02-26T00:42:34;6.60;99.90
17565;DHT22;62994;52.126;5.596;2024-02-26T00:45:01;6.60;99.90
17565;DHT22;62994;52.126;5.596;2024-02-26T00:47:28;6.50;99.90
17565;DHT22;62994;52.126;5.596;2024-02-26T00:49:59;6.50;99.90
17565;DHT22;62994;52.126;5.596;2024-02-26T00:52:28;6.50;99.90
17565;DHT22;62994;52.126;5.596;2024-02-26T00:54:55;6.50;99.90
17565;DHT22;62994;52.126;5.596;2024-02-26T00:57:21;6.50;99.90
17565;DHT22;62994;52.126;5.596;2024-02-26T00:59:48;6.50;99.90
17565;DHT22;62994;52.126;5.596;2024-02-26T01:02:16;6.50;99.90
17565;DHT22;62994;52.126;5.596;2024-02-26T01:04:43;6.50;99.90
17565;DHT22;62994;52.126;5.596;2024-02-26T01:07:10;6.50;99.90
17565;DHT22;62994;52.126;5.596;2024-02-26T01:09:38;6.50;99.90
17565;DHT22;62994;52.126;5.596;2024-02-26T01:12:05;6.50;99.90
17565;DHT22;62994;52.126;5.596;2024-02-26T01:14:32;6.40;99.90
17565;DHT22;62994;52.126;5.596;2024-02-26T01:16:59;6.50;99.90
17565;DHT22;62994;52.126;5.596;2024-02-26T01:19:31;6.40;99.90
17565;DHT22;62994;52.126;5.596;2024-02-26T01:21:57;6.40;99.90
17565;DHT22;62994;52.126;5.596;2024-02-26T01:24:24;6.40;99.90
17565;DHT22;62994;52.126;5.596;2024-02-26T01:26:53;6.40;99.90
17565;DHT22;62994;52.126;5.596;2024-02-26T01:29:20;6.40;99.90
17565;DHT22;62994;52.126;5.596;2024-02-26T01:31:47;6.40;99.90
17565;DHT22;62994;52.126;5.596;2024-02-26T01:34:13;6.40;99.90
17565;DHT22;62994;52.126;5.596;2024-02-26T01:36:40;6.30;99.90
17565;DHT22;62994;52.126;5.596;2024-02-26T01:39:07;6.30;99.90
17565;DHT22;62994;52.126;5.596;2024-02-26T01:41:37;6.30;99.90
17565;DHT22;62994;52.126;5.596;2024-02-26T01:44:05;6.30;99.90
17565;DHT22;62994;52.126;5.596;2024-02-26T01:46:34;6.30;99.90
17565;DHT22;62994;52.126;5.596;2024-02-26T01:49:03;6.30;99.90
17565;DHT22;62994;52.126;5.596;2024-02-26T01:51:31;6.30;99.90
17565;DHT22;62994;52.126;5.596;2024-02-26T01:54:02;6.30;99.90
17565;DHT22;62994;52.126;5.596;2024-02-26T01:56:30;6.30;99.90
17565;DHT22;62994;52.126;5.596;2024-02-26T01:58:58;6.30;99.90
17565;DHT22;62994;52.126;5.596;2024-02-26T02:01:31;6.20;99.90
17565;DHT22;62994;52.126;5.596;2024-02-26T02:03:59;6.20;99.90
17565;DHT22;62994;52.126;5.596;2024-02-26T02:06:27;6.20;99.90
17565;DHT22;62994;52.126;5.596;2024-02-26T02:08:55;6.30;99.90
17565;DHT22;62994;52.126;5.596;2024-02-26T02:11:22;6.30;99.90
17565;DHT22;62994;52.126;5.596;2024-02-26T02:13:49;6.30;99.90
17565;DHT22;62994;52.126;5.596;2024-02-26T02:16:16;6.20;99.90
17565;DHT22;62994;52.126;5.596;2024-02-26T02:18:44;6.20;99.90
17565;DHT22;62994;52.126;5.596;2024-02-26T02:21:12;6.30;99.90
17565;DHT22;62994;52.126;5.596;2024-02-26T02:23:39;6.30;99.90
17565;DHT22;62994;52.126;5.596;2024-02-26T02:26:11;6.30;99.90
17565;DHT22;62994;52.126;5.596;2024-02-26T02:28:40;6.30;99.90
17565;DHT22;62994;52.126;5.596;2024-02-26T02:31:07;6.40;99.90
17565;DHT22;62994;52.126;5.596;2024-02-26T02:33:34;6.40;99.90
17565;DHT22;62994;52.126;5.596;2024-02-26T02:36:01;6.30;99.90
17565;DHT22;62994;52.126;5.596;2024-02-26T02:38:30;6.30;99.90
17565;DHT22;62994;52.126;5.596;2024-02-26T02:40:57;6.30;99.90
17565;DHT22;62994;52.126;5.596;2024-02-26T02:43:24;6.30;99.90
17565;DHT22;62994;52.126;5.596;2024-02-26T02:45:51;6.30;99.90
17565;DHT22;62994;52.126;5.596;2024-02-26T02:48:18;6.30;99.90
17565;DHT22;62994;52.126;5.596;2024-02-26T02:50:45;6.30;99.90
17565;DHT22;62994;52.126;5.596;2024-02-26T02:53:12;6.30;99.90
17565;DHT22;62994;52.126;5.596;2024-02-26T02:55:40;6.20;99.90
17565;DHT22;62994;52.126;5.596;2024-02-26T02:58:07;6.30;99.90
17565;DHT22;62994;52.126;5.596;2024-02-26T03:00:34;6.20;99.90
17565;DHT22;62994;52.126;5.596;2024-02-26T03:03:01;6.20;99.90
17565;DHT22;62994;52.126;5.596;2024-02-26T03:05:28;6.30;99.90
17565;DHT22;62994;52.126;5.596;2024-02-26T03:07:55;6.30;99.90
17565;DHT22;62994;52.126;5.596;2024-02-26T03:10:21;6.30;99.90
17565;DHT22;62994;52.126;5.596;2024-02-26T03:12:49;6.30;99.90
17565;DHT22;62994;52.126;5.596;2024-02-26T03:15:16;6.30;99.90
17565;DHT22;62994;52.126;5.596;2024-02-26T03:17:43;6.30;99.90
17565;DHT22;62994;52.126;5.596;2024-02-26T03:20:11;6.20;99.90
17565;DHT22;62994;52.126;5.596;2024-02-26T03:22:38;6.20;99.90
17565;DHT22;62994;52.126;5.596;2024-02-26T03:25:06;6.20;99.90
17565;DHT22;62994;52.126;5.596;2024-02-26T03:27:33;6.30;99.90
17565;DHT22;62994;52.126;5.596;2024-02-26T03:30:02;6.30;99.90
17565;DHT22;62994;52.126;5.596;2024-02-26T03:32:29;6.30;99.90
17565;DHT22;62994;52.126;5.596;2024-02-26T03:34:56;6.30;99.90
17565;DHT22;62994;52.126;5.596;2024-02-26T03:37:23;6.30;99.90
17565;DHT22;62994;52.126;5.596;2024-02-26T03:39:50;6.30;99.90
17565;DHT22;62994;52.126;5.596;2024-02-26T03:42:17;6.30;99.90
17565;DHT22;62994;52.126;5.596;2024-02-26T03:44:44;6.30;99.90
17565;DHT22;62994;52.126;5.596;2024-02-26T03:47:13;6.30;99.90
17565;DHT22;62994;52.126;5.596;2024-02-26T03:49:40;6.40;99.90
17565;DHT22;62994;52.126;5.596;2024-02-26T03:52:07;6.30;99.90
17565;DHT22;62994;52.126;5.596;2024-02-26T03:54:34;6.30;99.90
17565;DHT22;62994;52.126;5.596;2024-02-26T03:57:01;6.30;99.90
17565;DHT22;62994;52.126;5.596;2024-02-26T03:59:27;6.30;99.90
17565;DHT22;62994;52.126;5.596;2024-02-26T04:01:54;6.30;99.90
17565;DHT22;62994;52.126;5.596;2024-02-26T04:04:23;6.30;99.90
17565;DHT22;62994;52.126;5.596;2024-02-26T04:06:49;6.30;99.90
17565;DHT22;62994;52.126;5.596;2024-02-26T04:09:16;6.30;99.90
17565;DHT22;62994;52.126;5.596;2024-02-26T04:11:43;6.30;99.90
17565;DHT22;62994;52.126;5.596;2024-02-26T04:14:10;6.30;99.90
17565;DHT22;62994;52.126;5.596;2024-02-26T04:16:38;6.30;99.90
17565;DHT22;62994;52.126;5.596;2024-02-26T04:19:05;6.30;99.90
17565;DHT22;62994;52.126;5.596;2024-02-26T04:21:33;6.30;99.90
17565;DHT22;62994;52.126;5.596;2024-02-26T04:24:00;6.30;99.90
17565;DHT22;62994;52.126;5.596;2024-02-26T04:26:27;6.20;99.90
17565;DHT22;62994;52.126;5.596;2024-02-26T04:28:55;6.30;99.90
17565;DHT22;62994;52.126;5.596;2024-02-26T04:31:22;6.20;99.90
17565;DHT22;62994;52.126;5.596;2024-02-26T04:33:48;6.20;99.90
17565;DHT22;62994;52.126;5.596;2024-02-26T04:36:15;6.20;99.90
17565;DHT22;62994;52.126;5.596;2024-02-26T04:38:44;6.20;99.90
17565;DHT22;62994;52.126;5.596;2024-02-26T04:41:11;6.20;99.90
17565;DHT22;62994;52.126;5.596;2024-02-26T04:43:39;6.30;99.90
17565;DHT22;62994;52.126;5.596;2024-02-26T04:46:07;6.30;99.90
17565;DHT22;62994;52.126;5.596;2024-02-26T04:48:34;6.30;99.90
17565;DHT22;62994;52.126;5.596;2024-02-26T04:51:02;6.30;99.90
17565;DHT22;62994;52.126;5.596;2024-02-26T04:53:29;6.30;99.90
17565;DHT22;62994;52.126;5.596;2024-02-26T04:55:57;6.30;99.90
17565;DHT22;62994;52.126;5.596;2024-02-26T04:58:24;6.30;99.90
17565;DHT22;62994;52.126;5.596;2024-02-26T05:00:51;6.30;99.90
17565;DHT22;62994;52.126;5.596;2024-02-26T05:03:18;6.30;99.90
17565;DHT22;62994;52.126;5.596;2024-02-26T05:05:45;6.30;99.90
17565;DHT22;62994;52.126;5.596;2024-02-26T05:08:12;6.30;99.90
17565;DHT22;62994;52.126;5.596;2024-02-26T05:10:39;6.30;99.90
17565;DHT22;62994;52.126;5.596;2024-02-26T05:13:08;6.30;99.90
17565;DHT22;62994;52.126;5.596;2024-02-26T05:15:35;6.30;99.90
17565;DHT22;62994;52.126;5.596;2024-02-26T05:18:02;6.30;99.90
17565;DHT22;62994;52.126;5.596;2024-02-26T05:20:29;6.30;99.90
17565;DHT22;62994;52.126;5.596;2024-02-26T05:22:56;6.30;99.90
17565;DHT22;62994;52.126;5.596;2024-02-26T05:25:25;6.20;99.90
17565;DHT22;62994;52.126;5.596;2024-02-26T05:27:51;6.30;99.90
17565;DHT22;62994;52.126;5.596;2024-02-26T05:30:20;6.30;99.90
17565;DHT22;62994;52.126;5.596;2024-02-26T05:32:47;6.30;99.90
17565;DHT22;62994;52.126;5.596;2024-02-26T05:35:14;6.30;99.90
17565;DHT22;62994;52.126;5.596;2024-02-26T05:37:41;6.30;99.90
17565;DHT22;62994;52.126;5.596;2024-02-26T05:40:09;6.30;99.90
17565;DHT22;62994;52.126;5.596;2024-02-26T05:42:36;6.30;99.90
17565;DHT22;62994;52.126;5.596;2024-02-26T05:45:03;6.30;99.90
17565;DHT22;62994;52.126;5.596;2024-02-26T05:47:33;6.30;99.90
17565;DHT22;62994;52.126;5.596;2024-02-26T05:50:00;6.30;99.90
17565;DHT22;62994;52.126;5.596;2024-02-26T05:52:27;6.30;99.90
17565;DHT22;62994;52.126;5.596;2024-02-26T05:54:55;6.30;99.90
17565;DHT22;62994;52.126;5.596;2024-02-26T05:57:21;6.30;99.90
17565;DHT22;62994;52.126;5.596;2024-02-26T05:59:48;6.30;99.90
17565;DHT22;62994;52.126;5.596;2024-02-26T06:02:15;6.30;99.90
17565;DHT22;62994;52.126;5.596;2024-02-26T06:04:44;6.30;99.90
17565;DHT22;62994;52.126;5.596;2024-02-26T06:07:12;6.30;99.90
17565;DHT22;62994;52.126;5.596;2024-02-26T06:09:39;6.30;99.90
17565;DHT22;62994;52.126;5.596;2024-02-26T06:12:06;6.20;99.90
17565;DHT22;62994;52.126;5.596;2024-02-26T06:14:33;6.20;99.90
17565;DHT22;62994;52.126;5.596;2024-02-26T06:17:01;6.20;99.90
17565;DHT22;62994;52.126;5.596;2024-02-26T06:19:28;6.20;99.90
17565;DHT22;62994;52.126;5.596;2024-02-26T06:21:56;6.20;99.90
17565;DHT22;62994;52.126;5.596;2024-02-26T06:24:23;6.20;99.90
17565;DHT22;62994;52.126;5.596;2024-02-26T06:26:50;6.20;99.90
17565;DHT22;62994;52.126;5.596;2024-02-26T06:29:17;6.20;99.90
17565;DHT22;62994;52.126;5.596;2024-02-26T06:31:44;6.20;99.90
17565;DHT22;62994;52.126;5.596;2024-02-26T06:34:11;6.20;99.90
17565;DHT22;62994;52.126;5.596;2024-02-26T06:36:38;6.20;99.90
17565;DHT22;62994;52.126;5.596;2024-02-26T06:39:06;6.20;99.90
17565;DHT22;62994;52.126;5.596;2024-02-26T06:41:33;6.20;99.90
17565;DHT22;62994;52.126;5.596;2024-02-26T06:44:02;6.20;99.90
17565;DHT22;62994;52.126;5.596;2024-02-26T06:46:29;6.20;99.90
17565;DHT22;62994;52.126;5.596;2024-02-26T06:48:56;6.20;99.90
17565;DHT22;62994;52.126;5.596;2024-02-26T06:51:23;6.20;99.90
17565;DHT22;62994;52.126;5.596;2024-02-26T06:53:50;6.20;99.90
17565;DHT22;62994;52.126;5.596;2024-02-26T06:56:18;6.20;99.90
17565;DHT22;62994;52.126;5.596;2024-02-26T06:58:45;6.20;99.90
17565;DHT22;62994;52.126;5.596;2024-02-26T07:01:12;6.20;99.90
17565;DHT22;62994;52.126;5.596;2024-02-26T07:03:40;6.20;99.90
17565;DHT22;62994;52.126;5.596;2024-02-26T07:06:08;6.20;99.90
17565;DHT22;62994;52.126;5.596;2024-02-26T07:08:35;6.20;99.90
17565;DHT22;62994;52.126;5.596;2024-02-26T07:11:07;6.20;99.90
17565;DHT22;62994;52.126;5.596;2024-02-26T07:13:35;6.20;99.90
17565;DHT22;62994;52.126;5.596;2024-02-26T07:16:03;6.20;99.90
17565;DHT22;62994;52.126;5.596;2024-02-26T07:18:30;6.10;99.90
17565;DHT22;62994;52.126;5.596;2024-02-26T07:20:57;6.20;99.90
17565;DHT22;62994;52.126;5.596;2024-02-26T07:23:23;6.10;99.90
17565;DHT22;62994;52.126;5.596;2024-02-26T07:25:50;6.20;99.90
17565;DHT22;62994;52.126;5.596;2024-02-26T07:28:18;6.20;99.90
17565;DHT22;62994;52.126;5.596;2024-02-26T07:30:47;6.20;99.90
17565;DHT22;62994;52.126;5.596;2024-02-26T07:33:14;6.20;99.90
17565;DHT22;62994;52.126;5.596;2024-02-26T07:35:41;6.20;99.90
17565;DHT22;62994;52.126;5.596;2024-02-26T07:38:08;6.20;99.90
17565;DHT22;62994;52.126;5.596;2024-02-26T07:40:34;6.20;99.90
17565;DHT22;62994;52.126;5.596;2024-02-26T07:43:01;6.20;99.90
17565;DHT22;62994;52.126;5.596;2024-02-26T07:45:28;6.20;99.90
17565;DHT22;62994;52.126;5.596;2024-02-26T07:47:57;6.20;99.90
17565;DHT22;62994;52.126;5.596;2024-02-26T07:50:24;6.20;99.90
17565;DHT22;62994;52.126;5.596;2024-02-26T07:52:50;6.20;99.90
17565;DHT22;62994;52.126;5.596;2024-02-26T07:55:18;6.20;99.90
17565;DHT22;62994;52.126;5.596;2024-02-26T07:57:45;6.20;99.90
17565;DHT22;62994;52.126;5.596;2024-02-26T08:00:13;6.20;99.90
17565;DHT22;62994;52.126;5.596;2024-02-26T08:02:42;6.20;99.90
17565;DHT22;62994;52.126;5.596;2024-02-26T08:05:11;6.20;99.90
17565;DHT22;62994;52.126;5.596;2024-02-26T08:07:37;6.20;99.90
17565;DHT22;62994;52.126;5.596;2024-02-26T08:10:05;6.20;99.90
17565;DHT22;62994;52.126;5.596;2024-02-26T08:12:32;6.20;99.90
17565;DHT22;62994;52.126;5.596;2024-02-26T08:14:59;6.30;99.90
17565;DHT22;62994;52.126;5.596;2024-02-26T08:17:27;6.30;99.90
17565;DHT22;62994;52.126;5.596;2024-02-26T08:19:53;6.30;99.90
17565;DHT22;62994;52.126;5.596;2024-02-26T08:22:22;6.30;99.90
17565;DHT22;62994;52.126;5.596;2024-02-26T08:24:49;6.30;99.90
17565;DHT22;62994;52.126;5.596;2024-02-26T08:27:16;6.30;99.90
17565;DHT22;62994;52.126;5.596;2024-02-26T08:29:43;6.40;99.90
17565;DHT22;62994;52.126;5.596;2024-02-26T08:32:09;6.40;99.90
17565;DHT22;62994;52.126;5.596;2024-02-26T08:34:36;6.30;99.90
17565;DHT22;62994;52.126;5.596;2024-02-26T08:37:04;6.40;99.90
17565;DHT22;62994;52.126;5.596;2024-02-26T08:39:33;6.40;99.90
17565;DHT22;62994;52.126;5.596;2024-02-26T08:42:00;6.40;99.90
17565;DHT22;62994;52.126;5.596;2024-02-26T08:44:27;6.40;99.90
17565;DHT22;62994;52.126;5.596;2024-02-26T08:46:54;6.40;99.90
17565;DHT22;62994;52.126;5.596;2024-02-26T08:49:21;6.50;99.90
17565;DHT22;62994;52.126;5.596;2024-02-26T08:51:49;6.40;99.90
17565;DHT22;62994;52.126;5.596;2024-02-26T08:54:16;6.50;99.90
17565;DHT22;62994;52.126;5.596;2024-02-26T08:56:44;6.50;99.90
17565;DHT22;62994;52.126;5.596;2024-02-26T08:59:11;6.50;99.90
17565;DHT22;62994;52.126;5.596;2024-02-26T09:01:38;6.50;99.90
17565;DHT22;62994;52.126;5.596;2024-02-26T09:04:05;6.50;99.90
17565;DHT22;62994;52.126;5.596;2024-02-26T09:06:32;6.50;99.90
17565;DHT22;62994;52.126;5.596;2024-02-26T09:08:59;6.50;99.90
17565;DHT22;62994;52.126;5.596;2024-02-26T09:11:26;6.50;99.90
17565;DHT22;62994;52.126;5.596;2024-02-26T09:13:54;6.50;99.90
17565;DHT22;62994;52.126;5.596;2024-02-26T09:16:21;6.50;99.90
17565;DHT22;62994;52.126;5.596;2024-02-26T09:18:49;6.50;99.90
17565;DHT22;62994;52.126;5.596;2024-02-26T09:21:16;6.50;99.90
17565;DHT22;62994;52.126;5.596;2024-02-26T09:23:49;6.50;99.90
17565;DHT22;62994;52.126;5.596;2024-02-26T09:26:16;6.50;99.90
17565;DHT22;62994;52.126;5.596;2024-02-26T09:28:44;6.50;99.90
17565;DHT22;62994;52.126;5.596;2024-02-26T09:31:14;6.50;99.90
17565;DHT22;62994;52.126;5.596;2024-02-26T09:33:42;6.50;99.90
17565;DHT22;62994;52.126;5.596;2024-02-26T09:36:09;6.50;99.90
17565;DHT22;62994;52.126;5.596;2024-02-26T09:38:36;6.50;99.90
17565;DHT22;62994;52.126;5.596;2024-02-26T09:41:05;6.50;99.90
17565;DHT22;62994;52.126;5.596;2024-02-26T09:43:34;6.60;99.90
17565;DHT22;62994;52.126;5.596;2024-02-26T09:46:02;6.60;99.90
17565;DHT22;62994;52.126;5.596;2024-02-26T09:48:31;6.60;99.90
17565;DHT22;62994;52.126;5.596;2024-02-26T09:51:01;6.60;99.90
17565;DHT22;62994;52.126;5.596;2024-02-26T09:53:29;6.60;99.90
17565;DHT22;62994;52.126;5.596;2024-02-26T09:55:57;6.60;99.90
17565;DHT22;62994;52.126;5.596;2024-02-26T09:58:25;6.70;99.90
17565;DHT22;62994;52.126;5.596;2024-02-26T10:00:56;6.70;99.90
17565;DHT22;62994;52.126;5.596;2024-02-26T10:03:27;6.70;99.90
17565;DHT22;62994;52.126;5.596;2024-02-26T10:05:56;6.60;99.90
17565;DHT22;62994;52.126;5.596;2024-02-26T10:08:24;6.70;99.90
17565;DHT22;62994;52.126;5.596;2024-02-26T10:10:52;6.70;99.90
17565;DHT22;62994;52.126;5.596;2024-02-26T10:13:19;6.70;99.90
17565;DHT22;62994;52.126;5.596;2024-02-26T10:15:47;6.70;99.90
17565;DHT22;62994;52.126;5.596;2024-02-26T10:18:15;6.70;99.90
17565;DHT22;62994;52.126;5.596;2024-02-26T10:20:42;6.80;99.90
17565;DHT22;62994;52.126;5.596;2024-02-26T10:23:10;6.80;99.90
17565;DHT22;62994;52.126;5.596;2024-02-26T10:25:37;6.80;99.90
17565;DHT22;62994;52.126;5.596;2024-02-26T10:28:04;6.90;99.90
17565;DHT22;62994;52.126;5.596;2024-02-26T10:30:31;6.80;99.90
17565;DHT22;62994;52.126;5.596;2024-02-26T10:32:59;6.80;99.90
17565;DHT22;62994;52.126;5.596;2024-02-26T10:35:26;6.90;99.90
17565;DHT22;62994;52.126;5.596;2024-02-26T10:37:54;6.80;99.90
17565;DHT22;62994;52.126;5.596;2024-02-26T10:40:22;6.90;99.90
17565;DHT22;62994;52.126;5.596;2024-02-26T10:42:49;6.80;99.90
17565;DHT22;62994;52.126;5.596;2024-02-26T10:45:16;6.90;99.90
17565;DHT22;62994;52.126;5.596;2024-02-26T10:47:44;6.90;99.90
17565;DHT22;62994;52.126;5.596;2024-02-26T10:50:13;6.90;99.90
17565;DHT22;62994;52.126;5.596;2024-02-26T10:52:42;6.90;99.90
17565;DHT22;62994;52.126;5.596;2024-02-26T10:55:15;6.90;99.90
17565;DHT22;62994;52.126;5.596;2024-02-26T10:57:45;6.90;99.90
17565;DHT22;62994;52.126;5.596;2024-02-26T11:00:14;6.90;99.90
17565;DHT22;62994;52.126;5.596;2024-02-26T11:02:42;6.90;99.90
17565;DHT22;62994;52.126;5.596;2024-02-26T11:05:11;6.90;99.90
17565;DHT22;62994;52.126;5.596;2024-02-26T11:07:38;7.00;99.90
17565;DHT22;62994;52.126;5.596;2024-02-26T11:10:09;7.00;99.90
17565;DHT22;62994;52.126;5.596;2024-02-26T11:12:39;7.00;99.90
17565;DHT22;62994;52.126;5.596;2024-02-26T11:15:09;7.00;99.90
17565;DHT22;62994;52.126;5.596;2024-02-26T11:17:37;7.10;99.90
17565;DHT22;62994;52.126;5.596;2024-02-26T11:20:05;7.00;99.90
17565;DHT22;62994;52.126;5.596;2024-02-26T11:22:36;7.00;99.90
17565;DHT22;62994;52.126;5.596;2024-02-26T11:25:04;7.00;99.90
17565;DHT22;62994;52.126;5.596;2024-02-26T11:27:35;7.00;99.90
17565;DHT22;62994;52.126;5.596;2024-02-26T11:30:05;7.00;99.90
17565;DHT22;62994;52.126;5.596;2024-02-26T11:32:37;7.00;99.90
17565;DHT22;62994;52.126;5.596;2024-02-26T11:35:05;7.10;99.90
17565;DHT22;62994;52.126;5.596;2024-02-26T11:37:33;7.10;99.90
17565;DHT22;62994;52.126;5.596;2024-02-26T11:40:00;7.00;99.90
17565;DHT22;62994;52.126;5.596;2024-02-26T11:42:27;7.10;99.90
17565;DHT22;62994;52.126;5.596;2024-02-26T11:44:55;7.10;99.90
17565;DHT22;62994;52.126;5.596;2024-02-26T11:47:27;7.10;99.90
17565;DHT22;62994;52.126;5.596;2024-02-26T11:49:55;7.10;99.90
17565;DHT22;62994;52.126;5.596;2024-02-26T11:52:22;7.10;99.90
17565;DHT22;62994;52.126;5.596;2024-02-26T11:54:50;7.10;99.90
17565;DHT22;62994;52.126;5.596;2024-02-26T11:57:25;7.10;99.90
17565;DHT22;62994;52.126;5.596;2024-02-26T11:59:53;7.20;99.90
17565;DHT22;62994;52.126;5.596;2024-02-26T12:02:44;7.20;99.90
17565;DHT22;62994;52.126;5.596;2024-02-26T12:05:14;7.20;99.90
17565;DHT22;62994;52.126;5.596;2024-02-26T12:07:44;7.10;99.90
17565;DHT22;62994;52.126;5.596;2024-02-26T12:10:24;7.10;99.90
17565;DHT22;62994;52.126;5.596;2024-02-26T12:13:03;7.10;99.90
17565;DHT22;62994;52.126;5.596;2024-02-26T12:15:31;7.10;99.90
17565;DHT22;62994;52.126;5.596;2024-02-26T12:18:01;7.10;99.90
17565;DHT22;62994;52.126;5.596;2024-02-26T12:20:30;7.10;99.90
17565;DHT22;62994;52.126;5.596;2024-02-26T12:22:58;7.10;99.90
17565;DHT22;62994;52.126;5.596;2024-02-26T12:25:26;7.10;99.90
17565;DHT22;62994;52.126;5.596;2024-02-26T12:27:54;7.10;99.90
17565;DHT22;62994;52.126;5.596;2024-02-26T12:30:21;7.10;99.90
17565;DHT22;62994;52.126;5.596;2024-02-26T12:32:49;7.20;99.90
17565;DHT22;62994;52.126;5.596;2024-02-26T12:35:16;7.20;99.90
17565;DHT22;62994;52.126;5.596;2024-02-26T12:37:45;7.20;99.90
17565;DHT22;62994;52.126;5.596;2024-02-26T12:40:13;7.20;99.90
17565;DHT22;62994;52.126;5.596;2024-02-26T12:42:40;7.20;99.90
17565;DHT22;62994;52.126;5.596;2024-02-26T12:45:09;7.20;99.90
17565;DHT22;62994;52.126;5.596;2024-02-26T12:47:37;7.30;99.90
17565;DHT22;62994;52.126;5.596;2024-02-26T12:50:05;7.30;99.90
17565;DHT22;62994;52.126;5.596;2024-02-26T12:52:33;7.30;99.90
17565;DHT22;62994;52.126;5.596;2024-02-26T12:55:05;7.30;99.90
17565;DHT22;62994;52.126;5.596;2024-02-26T12:57:34;7.30;99.90
17565;DHT22;62994;52.126;5.596;2024-02-26T13:00:03;7.30;99.90
17565;DHT22;62994;52.126;5.596;2024-02-26T13:02:32;7.40;99.90
17565;DHT22;62994;52.126;5.596;2024-02-26T13:04:59;7.40;99.90
17565;DHT22;62994;52.126;5.596;2024-02-26T13:07:27;7.30;99.90
17565;DHT22;62994;52.126;5.596;2024-02-26T13:09:54;7.30;99.90
17565;DHT22;62994;52.126;5.596;2024-02-26T13:12:23;7.40;99.90
17565;DHT22;62994;52.126;5.596;2024-02-26T13:14:58;7.40;99.90
17565;DHT22;62994;52.126;5.596;2024-02-26T13:17:26;7.30;99.90
17565;DHT22;62994;52.126;5.596;2024-02-26T13:19:53;7.40;99.90
17565;DHT22;62994;52.126;5.596;2024-02-26T13:22:21;7.30;99.90
17565;DHT22;62994;52.126;5.596;2024-02-26T13:24:59;7.40;99.90
17565;DHT22;62994;52.126;5.596;2024-02-26T13:27:40;7.40;99.90
17565;DHT22;62994;52.126;5.596;2024-02-26T13:30:09;7.50;99.90
17565;DHT22;62994;52.126;5.596;2024-02-26T13:32:38;7.50;99.90
17565;DHT22;62994;52.126;5.596;2024-02-26T13:35:06;7.60;99.90
17565;DHT22;62994;52.126;5.596;2024-02-26T13:37:32;7.50;99.90
17565;DHT22;62994;52.126;5.596;2024-02-26T13:40:00;7.60;99.90
17565;DHT22;62994;52.126;5.596;2024-02-26T13:42:30;7.60;99.90
17565;DHT22;62994;52.126;5.596;2024-02-26T13:44:58;7.60;99.90
17565;DHT22;62994;52.126;5.596;2024-02-26T13:47:25;7.70;99.90
17565;DHT22;62994;52.126;5.596;2024-02-26T13:49:52;7.70;99.90
17565;DHT22;62994;52.126;5.596;2024-02-26T13:52:19;7.60;99.90
17565;DHT22;62994;52.126;5.596;2024-02-26T13:54:46;7.60;99.90
17565;DHT22;62994;52.126;5.596;2024-02-26T13:57:13;7.60;99.90
17565;DHT22;62994;52.126;5.596;2024-02-26T13:59:40;7.60;99.90
17565;DHT22;62994;52.126;5.596;2024-02-26T14:02:09;7.60;99.90
17565;DHT22;62994;52.126;5.596;2024-02-26T14:04:36;7.70;99.90
17565;DHT22;62994;52.126;5.596;2024-02-26T14:07:04;7.70;99.90
17565;DHT22;62994;52.126;5.596;2024-02-26T14:09:31;7.70;99.90
17565;DHT22;62994;52.126;5.596;2024-02-26T14:11:58;7.70;99.90
17565;DHT22;62994;52.126;5.596;2024-02-26T14:14:25;7.80;99.90
17565;DHT22;62994;52.126;5.596;2024-02-26T14:16:52;7.70;99.90
17565;DHT22;62994;52.126;5.596;2024-02-26T14:19:20;7.80;99.90
17565;DHT22;62994;52.126;5.596;2024-02-26T14:21:47;7.80;99.90
17565;DHT22;62994;52.126;5.596;2024-02-26T14:24:14;7.80;99.90
17565;DHT22;62994;52.126;5.596;2024-02-26T14:26:42;7.80;99.90
17565;DHT22;62994;52.126;5.596;2024-02-26T14:29:09;7.80;99.90
17565;DHT22;62994;52.126;5.596;2024-02-26T14:31:36;7.90;99.90
17565;DHT22;62994;52.126;5.596;2024-02-26T14:34:03;7.90;99.90
17565;DHT22;62994;52.126;5.596;2024-02-26T14:36:31;7.90;99.90
17565;DHT22;62994;52.126;5.596;2024-02-26T14:38:58;7.80;99.90
17565;DHT22;62994;52.126;5.596;2024-02-26T14:41:25;7.80;99.90
17565;DHT22;62994;52.126;5.596;2024-02-26T14:43:52;7.80;99.90
17565;DHT22;62994;52.126;5.596;2024-02-26T14:46:19;7.90;99.90
17565;DHT22;62994;52.126;5.596;2024-02-26T14:48:47;7.80;99.90
17565;DHT22;62994;52.126;5.596;2024-02-26T14:51:14;7.90;99.90
17565;DHT22;62994;52.126;5.596;2024-02-26T14:53:42;7.80;99.90
17565;DHT22;62994;52.126;5.596;2024-02-26T14:56:09;7.90;99.90
17565;DHT22;62994;52.126;5.596;2024-02-26T14:58:36;7.80;99.90
17565;DHT22;62994;52.126;5.596;2024-02-26T15:01:05;7.90;99.90
17565;DHT22;62994;52.126;5.596;2024-02-26T15:03:32;7.90;99.90
17565;DHT22;62994;52.126;5.596;2024-02-26T15:05:59;7.90;99.90
17565;DHT22;62994;52.126;5.596;2024-02-26T15:08:26;7.90;99.90
17565;DHT22;62994;52.126;5.596;2024-02-26T15:10:55;7.90;99.90
17565;DHT22;62994;52.126;5.596;2024-02-26T15:13:22;7.90;99.90
17565;DHT22;62994;52.126;5.596;2024-02-26T15:15:48;7.90;99.90
17565;DHT22;62994;52.126;5.596;2024-02-26T15:18:15;7.80;99.90
17565;DHT22;62994;52.126;5.596;2024-02-26T15:20:47;7.80;99.90
17565;DHT22;62994;52.126;5.596;2024-02-26T15:23:14;7.80;99.90
17565;DHT22;62994;52.126;5.596;2024-02-26T15:25:43;7.80;99.90
17565;DHT22;62994;52.126;5.596;2024-02-26T15:28:11;7.80;99.90
17565;DHT22;62994;52.126;5.596;2024-02-26T15:30:40;7.80;99.90
17565;DHT22;62994;52.126;5.596;2024-02-26T15:33:07;7.80;99.90
17565;DHT22;62994;52.126;5.596;2024-02-26T15:35:34;7.80;99.90
17565;DHT22;62994;52.126;5.596;2024-02-26T15:38:02;7.80;99.90
17565;DHT22;62994;52.126;5.596;2024-02-26T15:40:29;7.80;99.90
17565;DHT22;62994;52.126;5.596;2024-02-26T15:42:56;7.90;99.90
17565;DHT22;62994;52.126;5.596;2024-02-26T15:45:25;7.80;99.90
17565;DHT22;62994;52.126;5.596;2024-02-26T15:47:52;7.80;99.90